Nursultan Nazarbayev International Airport

UACC · Nur-Sultan, 哈萨克斯坦

METAR UACC · Astana International Airport

15 四月 13:30 LT
18m
罗盘
风向 的 风向 的 风向 到 风向 080° Astana International Airport 4/22
风: 8 kt, 3 beaufort

6 kt

4 kt
改变
0 ft 1.000 2.000 3.000 4.000 5.000
Cloud Cloud Cloud Cloud
SCT 1.600
Cloud Cloud Cloud Cloud Cloud Cloud
BKN 2.600
METAR UACC 150830Z 08004MPS 040V120 9999 SCT016 BKN026 07/02 Q1016 NOSIG RMK QFE731/0974

METAR Astana International Airport - UACC/NQZ

Astana International Airport是,哈萨克斯坦中的大型机场。 该机场位于纬度51,02262和经度71,46622。 该机场有一条跑道: 4/22. 本场的ICAO机场代码为UACC。 该机场的IATA代码为NQZ。 机场在Astana FIR中。

该航空气象观测是针对Astana International Airport在2024年4月15日 13:30, 当地时间进行的。

机场观察

风向为080°,速度为8 kt。 风向在040°和120°之间变化。

可见度为10 km 或者更多。

有疏云,零星散落的云朵在1.600 ft的高度 和 碎云在2.600 ft的高度。 破损或更高的上限为2.600 ft。

温度为7 °C,阵风为3 °C。 露点为2 °C,相对湿度为71%。 海平面上的气压为1016 hPa (QNH)。

白天

今天,太阳从05:18升起,在19:09降落。 这适用于Astana International Airport,世界夏令时可能有所不同。 当地时间与世界标准时间之间的时差为+5 小时。 夏令时目前正在进行中。

公司介绍

我们没有关于这个机场的公司信息。

体会

到Vliegles.nl去找飞行课程,跳伞和其他飞行体验。 浏览页面,了解Astana International Airport附近所有可用的活动。 你也可以使用搜索功能来寻找你所在地附近的特定飞行课程、跳伞或其他飞行体验。

跑道

Id 标题 侧风 逆风 侧风 %
4/22 045°-225° 4 kt 6 kt 57 %

逆风成分最大的方向会被突出显示,并用于横风计算。 这并不一定意味着这个方向在使用。

乌云

1.600 ft SCT 疏云,零星散落的云朵
2.600 ft BKN 碎云

温度 & 天气

温度 7 °C
露点 2 °C
相对湿度 71%
风寒 3 °C
Kp-index 0 (0-9)

评论

QFE731/0974未知降水 结束于 73, 结束于

白天

日出
05:18
中午
12:14
日落
19:09 (5:21)

小工具

你想在你的网站上有一个关于Astana International Airport的当前航空天气(METAR)的小部件吗?

显示HTML代码
报告变更